createdAt,value
2023-08-18T05:49:01.083Z,5.60
2023-08-18T05:50:02.005Z,5.50
2023-08-18T05:51:01.951Z,5.40
2023-08-18T05:52:01.952Z,6.60
2023-08-18T05:53:01.965Z,5.60
2023-08-18T05:54:01.957Z,5.10
2023-08-18T05:55:01.916Z,5.40
2023-08-18T05:56:01.894Z,5.30
2023-08-18T05:57:01.886Z,5.10
2023-08-18T05:58:01.922Z,4.80
2023-08-18T05:59:01.861Z,4.60
2023-08-18T06:00:01.873Z,5.10
2023-08-18T06:01:01.857Z,5.00
2023-08-18T06:02:01.851Z,4.70
2023-08-18T06:03:01.869Z,4.80
2023-08-18T06:04:01.862Z,4.40
2023-08-18T06:05:01.812Z,4.60
2023-08-18T06:06:04.986Z,4.10
2023-08-18T06:07:01.791Z,4.20
2023-08-18T06:08:01.784Z,4.70
2023-08-18T06:09:01.762Z,5.20
2023-08-18T06:10:01.746Z,4.30
2023-08-18T06:11:01.760Z,4.40
2023-08-18T06:12:01.734Z,4.30
2023-08-18T06:13:01.702Z,4.50
2023-08-18T06:14:01.688Z,4.60
2023-08-18T06:15:01.685Z,4.60
2023-08-18T06:16:01.700Z,5.20
2023-08-18T06:17:01.725Z,4.80
2023-08-18T06:18:01.796Z,5.20
2023-08-18T06:19:01.631Z,4.90
2023-08-18T06:20:01.662Z,5.00
2023-08-18T06:21:01.623Z,4.40
2023-08-18T06:22:01.655Z,4.10
2023-08-18T06:23:01.618Z,4.30
2023-08-18T06:24:01.591Z,4.40
2023-08-18T06:25:01.587Z,5.10
2023-08-18T06:26:01.589Z,4.00
2023-08-18T06:27:01.624Z,3.90
2023-08-18T06:28:01.620Z,3.80
2023-08-18T06:29:01.545Z,4.60
2023-08-18T06:30:01.563Z,4.10
